Time;durP1;ratioP1;P1;durP2;ratioP2;P2;SDS_P1;SDS_P2;PMS_P1;PMS_P2;Temp;Humidity;BMP_temperature;BMP_pressure;BME280_temperature;BME280_humidity;BME280_pressure;Samples;Min_cycle;Max_cycle;Signal;HPM_P1;HPM_P2
2023/04/05 00:01:13;;;;;;;0.20;0.20;;;;;;;;;;5013889;28;20026;-85
2023/04/05 00:03:39;;;;;;;0.10;0.10;;;;;;;;;;4996437;28;20060;-80
2023/04/05 00:06:06;;;;;;;0.10;0.10;;;;;;;;;;5014131;28;20489;-81
2023/04/05 00:08:36;;;;;;;;;;;;;;;;;;4997724;28;20029;-81
2023/04/05 00:11:01;;;;;;;0.35;0.32;;;;;;;;;;4996124;28;19921;-80
2023/04/05 00:13:30;;;;;;;0.50;0.43;;;;;;;;;;5013893;28;20080;-81
2023/04/05 00:15:57;;;;;;;1.88;0.95;;;;;;;;;;5014168;28;20109;-82
2023/04/05 00:18:32;;;;;;;0.10;0.10;;;;;;;;;;4997333;28;20044;-82
2023/04/05 00:21:00;;;;;;;0.10;0.10;;;;;;;;;;4984094;28;20485;-80
2023/04/05 00:23:25;;;;;;;0.10;0.10;;;;;;;;;;4998997;28;20121;-82
2023/04/05 00:25:51;;;;;;;0.20;0.20;;;;;;;;;;4979910;28;20129;-79
2023/04/05 00:28:22;;;;;;;0.20;0.20;;;;;;;;;;4995187;28;20046;-81
2023/04/05 00:30:50;;;;;;;0.10;0.10;;;;;;;;;;4979902;28;20045;-83
2023/04/05 00:33:18;;;;;;;0.75;0.75;;;;;;;;;;4980206;28;20478;-81
2023/04/05 00:35:43;;;;;;;0.17;0.17;;;;;;;;;;4979682;28;20033;-81
2023/04/05 00:38:08;;;;;;;0.73;0.43;;;;;;;;;;4979449;28;20049;-82
2023/04/05 00:40:35;;;;;;;0.10;0.10;;;;;;;;;;5013658;28;20096;-83
2023/04/05 00:43:00;;;;;;;0.10;0.10;;;;;;;;;;4977725;28;20097;-89
2023/04/05 00:45:30;;;;;;;0.10;0.10;;;;;;;;;;4994659;28;20040;-89
2023/04/05 00:48:00;;;;;;;0.55;0.55;;;;;;;;;;4977726;28;20039;-87
2023/04/05 00:50:29;;;;;;;0.22;0.22;;;;;;;;;;4993969;28;20524;-88
2023/04/05 00:52:56;;;;;;;0.35;0.35;;;;;;;;;;4976592;28;20037;-85
2023/04/05 00:55:21;;;;;;;0.20;0.20;;;;;;;;;;4993770;28;20027;-84
2023/04/05 00:57:48;;;;;;;0.10;0.10;;;;;;;;;;4976191;28;20516;-85
2023/04/05 01:00:21;;;;;;;0.10;0.10;;;;;;;;;;4977366;28;20026;-85
2023/04/05 01:03:00;;;;;;;0.10;0.10;;;;;;;;;;4994094;28;20042;-85
2023/04/05 01:05:33;;;;;;;0.13;0.13;;;;;;;;;;4976495;28;20026;-85
2023/04/05 01:08:16;;;;;;;0.60;0.60;;;;;;;;;;4976389;28;20034;-78
2023/04/05 01:10:43;;;;;;;0.20;0.20;;;;;;;;;;4993684;28;20042;-76
2023/04/05 01:13:35;;;;;;;0.10;0.10;;;;;;;;;;4993701;28;20073;-77
2023/04/05 01:16:03;;;;;;;0.93;0.68;;;;;;;;;;4976710;28;20030;-77
2023/04/05 01:18:29;;;;;;;0.30;0.30;;;;;;;;;;4976160;28;20042;-76
2023/04/05 01:21:24;;;;;;;0.10;0.10;;;;;;;;;;4976171;28;20043;-77
2023/04/05 01:24:11;;;;;;;0.20;0.20;;;;;;;;;;4951519;28;20049;-77
2023/04/05 01:26:52;;;;;;;0.63;0.63;;;;;;;;;;4976111;28;20129;-78
2023/04/05 01:29:37;;;;;;;0.10;0.10;;;;;;;;;;4975874;28;20057;-76
2023/04/05 01:32:14;;;;;;;0.32;0.32;;;;;;;;;;4993579;28;20043;-76
2023/04/05 01:34:44;;;;;;;0.20;0.20;;;;;;;;;;4975879;28;20042;-76
2023/04/05 01:37:14;;;;;;;0.10;0.10;;;;;;;;;;4976021;28;20042;-85
2023/04/05 01:39:40;;;;;;;0.68;0.25;;;;;;;;;;4988684;28;20061;-83
2023/04/05 01:42:05;;;;;;;0.30;0.30;;;;;;;;;;4995640;28;20065;-83
2023/04/05 01:44:35;;;;;;;1.42;1.05;;;;;;;;;;4980040;28;20065;-86
2023/04/05 01:47:06;;;;;;;0.10;0.10;;;;;;;;;;4997386;28;20184;-89
2023/04/05 01:49:32;;;;;;;3.10;1.88;;;;;;;;;;4979473;28;20564;-83
2023/04/05 01:52:00;;;;;;;0.68;0.68;;;;;;;;;;4980128;28;20116;-87
2023/04/05 01:54:26;;;;;;;0.10;0.10;;;;;;;;;;4963638;28;20486;-88
2023/04/05 01:56:53;;;;;;;0.32;0.32;;;;;;;;;;4979678;28;20034;-89
2023/04/05 01:59:43;;;;;;;0.10;0.10;;;;;;;;;;4996710;28;20057;-89
2023/04/05 02:02:15;;;;;;;0.20;0.20;;;;;;;;;;4997066;28;20398;-83
2023/04/05 02:05:05;;;;;;;0.20;0.20;;;;;;;;;;4996998;28;20453;-82
2023/04/05 02:07:34;;;;;;;0.38;0.30;;;;;;;;;;4979142;28;20034;-83
2023/04/05 02:10:01;;;;;;;0.10;0.10;;;;;;;;;;4978872;28;20177;-80
2023/04/05 02:12:30;;;;;;;0.10;0.10;;;;;;;;;;4978901;28;20026;-81
2023/04/05 02:14:57;;;;;;;0.20;0.20;;;;;;;;;;4978695;28;20121;-79
2023/04/05 02:17:22;;;;;;;0.10;0.10;;;;;;;;;;4995644;28;20132;-84
2023/04/05 02:19:51;;;;;;;0.10;0.10;;;;;;;;;;4979840;28;20522;-81
2023/04/05 02:22:20;;;;;;;0.10;0.10;;;;;;;;;;4962813;28;20049;-81
2023/04/05 02:24:47;;;;;;;0.10;0.10;;;;;;;;;;4996277;28;20080;-86
2023/04/05 02:27:15;;;;;;;0.10;0.10;;;;;;;;;;4978686;28;20034;-78
2023/04/05 02:29:44;;;;;;;0.10;0.10;;;;;;;;;;4978605;28;20034;-78
2023/04/05 02:32:10;;;;;;;1.83;1.67;;;;;;;;;;4962126;28;20031;-81
2023/04/05 02:34:37;;;;;;;0.10;0.10;;;;;;;;;;4962112;28;20038;-82
2023/04/05 02:37:21;;;;;;;0.17;0.17;;;;;;;;;;4996105;28;20053;-78
2023/04/05 02:40:07;;;;;;;1.20;0.73;;;;;;;;;;4981295;28;20061;-82
2023/04/05 02:42:33;;;;;;;0.20;0.20;;;;;;;;;;4978920;28;20042;-80
2023/04/05 02:44:58;;;;;;;0.10;0.10;;;;;;;;;;4978608;28;20034;-85
2023/04/05 02:47:24;;;;;;;0.10;0.10;;;;;;;;;;4978451;28;20030;-86
2023/04/05 02:49:54;;;;;;;0.32;0.30;;;;;;;;;;4994807;28;20026;-87
2023/04/05 02:52:22;;;;;;;0.35;0.32;;;;;;;;;;4980051;28;20073;-84
2023/04/05 02:54:48;;;;;;;0.10;0.10;;;;;;;;;;4981830;28;20029;-89
2023/04/05 02:57:18;;;;;;;0.10;0.10;;;;;;;;;;4982166;28;20081;-84
2023/04/05 02:59:52;;;;;;;0.10;0.10;;;;;;;;;;4982687;28;20485;-84
2023/04/05 03:02:19;;;;;;;0.10;0.10;;;;;;;;;;4978305;28;20030;-82
2023/04/05 03:04:45;;;;;;;0.10;0.10;;;;;;;;;;4993857;28;20075;-82
2023/04/05 03:07:17;;;;;;;0.10;0.10;;;;;;;;;;4993383;28;20107;-83
2023/04/05 03:09:45;;;;;;;0.20;0.20;;;;;;;;;;4994144;28;20037;-83
2023/04/05 03:12:11;;;;;;;0.10;0.10;;;;;;;;;;4977638;28;20049;-82
2023/04/05 03:14:40;;;;;;;0.22;0.22;;;;;;;;;;4993453;28;20045;-84
2023/04/05 03:17:07;;;;;;;0.10;0.10;;;;;;;;;;4977314;28;20092;-84
2023/04/05 03:19:37;;;;;;;0.17;0.17;;;;;;;;;;4993252;28;20033;-76
2023/04/05 03:22:15;;;;;;;0.17;0.17;;;;;;;;;;4992804;28;20038;-79
2023/04/05 03:24:41;;;;;;;0.10;0.10;;;;;;;;;;4993324;28;20091;-79
2023/04/05 03:27:08;;;;;;;0.65;0.65;;;;;;;;;;4993099;28;20037;-79
2023/04/05 03:29:43;;;;;;;0.22;0.22;;;;;;;;;;4993077;28;20496;-79
2023/04/05 03:32:14;;;;;;;0.10;0.10;;;;;;;;;;4985210;28;20129;-78
2023/04/05 03:34:47;;;;;;;0.47;0.47;;;;;;;;;;4973512;28;20408;-77
2023/04/05 03:37:14;;;;;;;0.47;0.47;;;;;;;;;;4973634;28;20038;-78
2023/04/05 03:39:45;;;;;;;0.30;0.30;;;;;;;;;;4989534;28;20069;-81
2023/04/05 03:42:14;;;;;;;0.20;0.20;;;;;;;;;;4991420;28;20038;-76
2023/04/05 03:44:41;;;;;;;0.65;0.65;;;;;;;;;;4984555;28;20029;-76
2023/04/05 03:47:06;;;;;;;0.10;0.10;;;;;;;;;;4992919;28;20034;-78
2023/04/05 03:49:32;;;;;;;0.17;0.17;;;;;;;;;;4992935;28;20038;-79
2023/04/05 03:51:57;;;;;;;0.20;0.20;;;;;;;;;;5003919;28;20428;-81
2023/04/05 03:54:23;;;;;;;0.10;0.10;;;;;;;;;;5010409;28;20042;-81
2023/04/05 03:56:53;;;;;;;0.85;0.85;;;;;;;;;;4992641;28;20065;-81
2023/04/05 03:59:19;;;;;;;0.20;0.20;;;;;;;;;;4992619;28;20064;-81
2023/04/05 04:01:44;;;;;;;0.10;0.10;;;;;;;;;;4991943;28;20080;-91
2023/04/05 04:04:12;;;;;;;0.20;0.20;;;;;;;;;;4993803;28;20030;-82
2023/04/05 04:06:40;;;;;;;0.10;0.10;;;;;;;;;;4976593;28;20457;-80
2023/04/05 04:09:06;;;;;;;0.10;0.10;;;;;;;;;;4992146;28;20044;-81
2023/04/05 04:11:31;;;;;;;0.47;0.30;;;;;;;;;;4992804;28;20045;-81
2023/04/05 04:14:00;;;;;;;0.20;0.20;;;;;;;;;;4989919;28;20033;-81
2023/04/05 04:16:44;;;;;;;0.20;0.20;;;;;;;;;;5000743;28;20048;-80
2023/04/05 04:19:39;;;;;;;0.10;0.10;;;;;;;;;;4992742;28;20148;-82
2023/04/05 04:22:12;;;;;;;0.20;0.20;;;;;;;;;;4993601;28;20547;-81
2023/04/05 04:24:44;;;;;;;0.10;0.10;;;;;;;;;;5010116;28;20038;-81
2023/04/05 04:27:34;;;;;;;0.13;0.13;;;;;;;;;;5010210;28;20064;-81
2023/04/05 04:30:03;;;;;;;0.15;0.15;;;;;;;;;;4992349;28;20084;-90
2023/04/05 04:35:33;;;;;;;0.22;0.22;;;;;;;;;;5001528;28;20929;-87
2023/04/05 04:38:19;;;;;;;0.15;0.15;;;;;;;;;;4995846;28;20035;-84
2023/04/05 04:41:10;;;;;;;0.30;0.30;;;;;;;;;;4995328;28;20068;-91
2023/04/05 04:44:03;;;;;;;0.13;0.13;;;;;;;;;;4992691;28;20040;-84
2023/04/05 04:47:12;;;;;;;0.17;0.17;;;;;;;;;;4956372;28;20097;-80
2023/04/05 04:50:02;;;;;;;0.15;0.15;;;;;;;;;;4972338;28;20042;-81
2023/04/05 04:52:29;;;;;;;0.13;0.13;;;;;;;;;;5002265;28;20044;-86
2023/04/05 04:54:54;;;;;;;0.30;0.30;;;;;;;;;;4986240;28;20109;-89
2023/04/05 04:57:19;;;;;;;0.70;0.43;;;;;;;;;;5002433;28;20049;-91
2023/04/05 04:59:45;;;;;;;0.10;0.10;;;;;;;;;;4992850;28;20477;-93
2023/04/05 05:02:10;;;;;;;0.20;0.20;;;;;;;;;;5003872;28;21046;-85
2023/04/05 05:04:36;;;;;;;0.20;0.20;;;;;;;;;;4997347;28;20109;-84
2023/04/05 05:07:01;;;;;;;0.13;0.13;;;;;;;;;;5009344;28;20405;-81
2023/04/05 05:09:26;;;;;;;0.13;0.13;;;;;;;;;;5004594;28;20033;-89
2023/04/05 05:11:58;;;;;;;0.20;0.20;;;;;;;;;;4991932;28;20065;-82
2023/04/05 05:14:23;;;;;;;0.17;0.17;;;;;;;;;;5010544;28;20033;-92
2023/04/05 05:16:49;;;;;;;0.10;0.10;;;;;;;;;;5011092;28;20183;-86
2023/04/05 05:19:16;;;;;;;0.13;0.13;;;;;;;;;;4994246;28;20041;-88
2023/04/05 05:21:46;;;;;;;3.95;1.90;;;;;;;;;;4996978;28;20042;-86
2023/04/05 05:24:13;;;;;;;0.20;0.20;;;;;;;;;;5000905;28;20038;-81
2023/04/05 05:26:38;;;;;;;0.20;0.20;;;;;;;;;;5017198;28;20053;-85
2023/04/05 05:29:04;;;;;;;1.38;0.30;;;;;;;;;;5000789;28;20034;-88
2023/04/05 05:31:32;;;;;;;0.38;0.35;;;;;;;;;;4997536;28;20027;-82
2023/04/05 05:33:58;;;;;;;1.15;0.80;;;;;;;;;;4973523;28;20045;-81
2023/04/05 05:36:24;;;;;;;1.85;0.32;;;;;;;;;;4990909;28;20121;-84
2023/04/05 05:38:51;;;;;;;0.10;0.10;;;;;;;;;;4991027;28;20032;-84
2023/04/05 05:41:17;;;;;;;0.40;0.28;;;;;;;;;;4993095;28;20030;-82
2023/04/05 05:43:42;;;;;;;0.10;0.10;;;;;;;;;;4997044;28;20546;-91
2023/04/05 05:46:08;;;;;;;0.10;0.10;;;;;;;;;;5010975;28;20516;-83
2023/04/05 05:48:33;;;;;;;0.10;0.10;;;;;;;;;;4995066;28;20064;-84
2023/04/05 05:51:00;;;;;;;0.10;0.10;;;;;;;;;;5012716;28;20038;-85
2023/04/05 05:53:26;;;;;;;0.10;0.10;;;;;;;;;;5012183;28;20037;-85
2023/04/05 05:55:51;;;;;;;0.20;0.20;;;;;;;;;;4993011;28;20044;-77
2023/04/05 05:58:16;;;;;;;0.10;0.10;;;;;;;;;;5010587;28;20575;-80
2023/04/05 06:00:42;;;;;;;0.10;0.10;;;;;;;;;;5011013;28;20030;-79
2023/04/05 06:03:08;;;;;;;0.30;0.30;;;;;;;;;;5012383;28;20441;-80
2023/04/05 06:05:34;;;;;;;0.28;0.28;;;;;;;;;;5012390;28;20056;-77
2023/04/05 06:07:59;;;;;;;0.80;0.80;;;;;;;;;;5008343;28;20065;-79
2023/04/05 06:10:25;;;;;;;0.22;0.22;;;;;;;;;;5001213;28;20029;-78
2023/04/05 06:12:50;;;;;;;0.45;0.45;;;;;;;;;;4994563;28;20030;-76
2023/04/05 06:15:16;;;;;;;0.73;0.73;;;;;;;;;;4994520;28;20041;-77
2023/04/05 06:17:41;;;;;;;0.10;0.10;;;;;;;;;;4994278;28;20312;-76
2023/04/05 06:20:10;;;;;;;0.13;0.13;;;;;;;;;;4994822;28;20041;-73
2023/04/05 06:22:36;;;;;;;0.10;0.10;;;;;;;;;;5003364;28;20035;-81
2023/04/05 06:25:02;;;;;;;0.10;0.10;;;;;;;;;;4990228;28;20034;-77
2023/04/05 06:27:28;;;;;;;0.10;0.10;;;;;;;;;;5009059;28;20041;-78
2023/04/05 06:29:54;;;;;;;0.20;0.20;;;;;;;;;;4982375;28;20042;-78
2023/04/05 06:32:19;;;;;;;0.10;0.10;;;;;;;;;;4973830;28;20477;-78
2023/04/05 06:34:47;;;;;;;0.52;0.20;;;;;;;;;;4991720;28;20050;-77
2023/04/05 06:37:13;;;;;;;0.68;0.68;;;;;;;;;;4991384;28;20022;-77
2023/04/05 06:39:38;;;;;;;1.65;1.23;;;;;;;;;;4991630;28;20173;-77
2023/04/05 06:42:04;;;;;;;0.82;0.82;;;;;;;;;;4983441;28;20077;-77
2023/04/05 06:44:37;;;;;;;0.10;0.10;;;;;;;;;;4993848;28;20041;-78
2023/04/05 06:47:03;;;;;;;0.50;0.50;;;;;;;;;;5010945;28;20496;-76
2023/04/05 06:49:29;;;;;;;1.15;1.10;;;;;;;;;;5011547;28;20056;-76
2023/04/05 06:51:54;;;;;;;0.10;0.10;;;;;;;;;;4993425;28;20033;-78
2023/04/05 06:54:21;;;;;;;0.68;0.47;;;;;;;;;;4993402;28;20157;-77
2023/04/05 06:56:47;;;;;;;0.17;0.17;;;;;;;;;;4993710;28;20488;-78
2023/04/05 06:59:12;;;;;;;0.10;0.10;;;;;;;;;;5010934;28;20116;-77
2023/04/05 07:01:38;;;;;;;0.10;0.10;;;;;;;;;;4993657;28;20069;-79
2023/04/05 07:04:03;;;;;;;0.30;0.30;;;;;;;;;;5010812;28;20068;-78
2023/04/05 07:06:29;;;;;;;0.20;0.20;;;;;;;;;;5011300;28;20053;-78
2023/04/05 07:08:54;;;;;;;0.13;0.13;;;;;;;;;;5010994;28;20077;-77
2023/04/05 07:11:20;;;;;;;0.20;0.20;;;;;;;;;;5010749;28;20026;-77
2023/04/05 07:13:45;;;;;;;0.40;0.40;;;;;;;;;;4993424;28;20100;-78
2023/04/05 07:16:11;;;;;;;0.28;0.28;;;;;;;;;;5010955;28;20053;-78
2023/04/05 07:18:36;;;;;;;0.10;0.10;;;;;;;;;;5010615;28;20042;-81
2023/04/05 07:21:02;;;;;;;0.10;0.10;;;;;;;;;;4992883;28;20121;-79
2023/04/05 07:23:28;;;;;;;0.32;0.32;;;;;;;;;;5010991;28;20042;-78
2023/04/05 07:25:54;;;;;;;0.10;0.10;;;;;;;;;;4993172;28;20038;-78
2023/04/05 07:28:20;;;;;;;0.25;0.25;;;;;;;;;;5010357;28;20037;-76
2023/04/05 07:30:45;;;;;;;1.92;1.23;;;;;;;;;;4992870;28;20037;-78
2023/04/05 07:33:11;;;;;;;0.70;0.70;;;;;;;;;;5010329;28;20034;-78
2023/04/05 07:35:37;;;;;;;1.30;1.00;;;;;;;;;;4992391;28;20484;-79
2023/04/05 07:38:02;;;;;;;0.60;0.40;;;;;;;;;;5009834;28;20344;-78
2023/04/05 07:40:27;;;;;;;0.22;0.22;;;;;;;;;;5010269;28;20441;-78
2023/04/05 07:42:53;;;;;;;1.15;1.05;;;;;;;;;;5010424;28;20056;-77
2023/04/05 07:45:18;;;;;;;0.10;0.10;;;;;;;;;;5010544;28;20026;-76
2023/04/05 07:47:45;;;;;;;2.10;0.70;;;;;;;;;;5010790;28;20450;-77
2023/04/05 07:50:13;;;;;;;0.45;0.45;;;;;;;;;;4974293;28;20041;-77
2023/04/05 07:52:39;;;;;;;0.60;0.47;;;;;;;;;;4985812;28;20270;-77
2023/04/05 07:55:06;;;;;;;0.10;0.10;;;;;;;;;;4991263;28;20358;-77
2023/04/05 07:57:31;;;;;;;0.55;0.55;;;;;;;;;;5010313;28;20438;-76
2023/04/05 07:59:56;;;;;;;0.30;0.30;;;;;;;;;;5009910;28;20037;-77
2023/04/05 08:02:22;;;;;;;1.15;0.40;;;;;;;;;;5003273;28;20492;-76
2023/04/05 08:04:48;;;;;;;0.80;0.25;;;;;;;;;;5003387;28;20038;-78
2023/04/05 08:07:13;;;;;;;2.03;1.33;;;;;;;;;;5006947;28;20030;-79
2023/04/05 08:09:38;;;;;;;1.15;0.52;;;;;;;;;;4991126;28;20065;-76
2023/04/05 08:12:05;;;;;;;0.60;0.60;;;;;;;;;;4989875;28;20389;-77
2023/04/05 08:14:30;;;;;;;0.30;0.30;;;;;;;;;;4991724;28;20034;-78
2023/04/05 08:16:55;;;;;;;0.13;0.13;;;;;;;;;;5009486;28;20088;-77
2023/04/05 08:19:21;;;;;;;0.32;0.30;;;;;;;;;;5009178;28;20117;-77
2023/04/05 08:21:46;;;;;;;0.10;0.10;;;;;;;;;;5009355;28;20072;-78
2023/04/05 08:24:12;;;;;;;0.10;0.10;;;;;;;;;;5008048;28;20034;-76
2023/04/05 08:26:37;;;;;;;0.10;0.10;;;;;;;;;;5008080;28;20026;-76
2023/04/05 08:29:02;;;;;;;0.20;0.20;;;;;;;;;;5009182;28;20488;-77
2023/04/05 08:31:28;;;;;;;0.10;0.10;;;;;;;;;;5006663;28;20389;-76
2023/04/05 08:33:54;;;;;;;0.10;0.10;;;;;;;;;;5009183;28;20482;-77
2023/04/05 08:36:19;;;;;;;0.17;0.17;;;;;;;;;;5009199;28;20049;-76
2023/04/05 08:38:45;;;;;;;0.10;0.10;;;;;;;;;;5007754;28;20095;-77
2023/04/05 08:41:16;;;;;;;0.20;0.20;;;;;;;;;;4991356;28;20041;-77
2023/04/05 08:43:42;;;;;;;0.10;0.10;;;;;;;;;;5008565;28;20042;-78
2023/04/05 08:46:08;;;;;;;0.20;0.20;;;;;;;;;;5008717;28;20101;-77
2023/04/05 08:48:35;;;;;;;0.10;0.10;;;;;;;;;;5010328;28;20276;-76
2023/04/05 08:51:00;;;;;;;0.88;0.80;;;;;;;;;;5013039;28;20026;-76
2023/04/05 08:53:25;;;;;;;0.10;0.10;;;;;;;;;;4992748;28;20128;-76
2023/04/05 08:55:54;;;;;;;0.15;0.15;;;;;;;;;;5013019;28;20033;-76
2023/04/05 08:58:23;;;;;;;0.60;0.52;;;;;;;;;;5012135;28;20120;-80
2023/04/05 09:00:51;;;;;;;0.47;0.30;;;;;;;;;;5013162;28;20128;-78
2023/04/05 09:03:18;;;;;;;0.10;0.10;;;;;;;;;;4995394;28;20506;-76
2023/04/05 09:05:45;;;;;;;1.00;0.30;;;;;;;;;;4995160;28;20070;-77
2023/04/05 09:08:11;;;;;;;0.30;0.30;;;;;;;;;;4978709;28;20038;-76
2023/04/05 09:10:36;;;;;;;0.80;0.75;;;;;;;;;;4993644;28;20378;-76
2023/04/05 09:13:02;;;;;;;0.20;0.20;;;;;;;;;;4993272;28;20030;-78
2023/04/05 09:15:28;;;;;;;0.30;0.30;;;;;;;;;;5007596;28;20030;-76
2023/04/05 09:17:54;;;;;;;1.95;1.80;;;;;;;;;;5001139;28;20043;-77
2023/04/05 09:20:20;;;;;;;0.20;0.20;;;;;;;;;;4992880;28;20038;-77
2023/04/05 09:22:45;;;;;;;0.20;0.20;;;;;;;;;;4992564;28;20034;-76
2023/04/05 09:25:31;;;;;;;0.10;0.10;;;;;;;;;;4995978;28;20084;-75
2023/04/05 09:27:57;;;;;;;0.10;0.10;;;;;;;;;;4997150;28;20358;-77
2023/04/05 09:30:23;;;;;;;0.10;0.10;;;;;;;;;;5012728;28;20022;-76
2023/04/05 09:32:53;;;;;;;0.30;0.30;;;;;;;;;;5012167;28;20026;-81
2023/04/05 09:35:27;;;;;;;0.10;0.10;;;;;;;;;;5011830;28;20045;-81
2023/04/05 09:37:53;;;;;;;0.10;0.10;;;;;;;;;;5008423;28;20074;-76
2023/04/05 09:40:21;;;;;;;0.38;0.30;;;;;;;;;;4994621;28;20132;-77
2023/04/05 09:42:46;;;;;;;0.10;0.10;;;;;;;;;;5007158;28;20109;-77
2023/04/05 09:45:12;;;;;;;0.30;0.20;;;;;;;;;;5009700;28;20523;-75
2023/04/05 09:47:56;;;;;;;0.30;0.30;;;;;;;;;;4975552;28;20106;-76
2023/04/05 09:50:21;;;;;;;0.10;0.10;;;;;;;;;;5007180;28;20048;-77
2023/04/05 09:52:48;;;;;;;0.10;0.10;;;;;;;;;;5000933;28;20378;-77
2023/04/05 09:55:24;;;;;;;0.10;0.10;;;;;;;;;;5002093;28;20034;-76
2023/04/05 09:57:49;;;;;;;0.57;0.57;;;;;;;;;;4992683;28;20753;-77
2023/04/05 10:00:19;;;;;;;0.10;0.10;;;;;;;;;;4991513;28;20030;-76
2023/04/05 10:02:48;;;;;;;3.17;2.97;;;;;;;;;;4974769;28;20434;-76
2023/04/05 10:05:14;;;;;;;0.65;0.65;;;;;;;;;;4975509;28;20034;-77
2023/04/05 10:07:43;;;;;;;0.15;0.15;;;;;;;;;;4976703;28;20026;-77
2023/04/05 10:10:11;;;;;;;0.10;0.10;;;;;;;;;;4996234;28;20034;-75
2023/04/05 10:12:40;;;;;;;0.17;0.17;;;;;;;;;;4998755;28;20030;-76
2023/04/05 10:15:06;;;;;;;0.17;0.17;;;;;;;;;;5009055;28;20037;-76
2023/04/05 10:17:42;;;;;;;2.72;1.08;;;;;;;;;;4974101;28;20045;-77
2023/04/05 10:20:07;;;;;;;0.10;0.10;;;;;;;;;;5000896;28;20053;-73
2023/04/05 10:22:39;;;;;;;0.10;0.10;;;;;;;;;;5009460;28;20466;-75
2023/04/05 10:25:10;;;;;;;0.10;0.10;;;;;;;;;;4988176;28;20042;-71
2023/04/05 10:27:45;;;;;;;0.13;0.13;;;;;;;;;;4977356;28;20461;-70
2023/04/05 10:30:11;;;;;;;2.28;0.32;;;;;;;;;;5009046;28;20539;-74
2023/04/05 10:32:49;;;;;;;0.15;0.15;;;;;;;;;;5009369;28;20033;-74
2023/04/05 10:35:16;;;;;;;1.00;0.85;;;;;;;;;;4983377;28;20454;-68
2023/04/05 10:37:52;;;;;;;0.10;0.10;;;;;;;;;;4995304;28;20066;-73
2023/04/05 10:40:20;;;;;;;0.10;0.10;;;;;;;;;;4995352;28;20054;-70
2023/04/05 10:42:46;;;;;;;0.30;0.30;;;;;;;;;;4995924;28;20033;-77
2023/04/05 10:45:14;;;;;;;0.60;0.60;;;;;;;;;;4991428;28;20034;-75
2023/04/05 10:48:04;;;;;;;0.10;0.10;;;;;;;;;;4972187;28;20034;-78
2023/04/05 10:50:31;;;;;;;0.10;0.10;;;;;;;;;;4973456;28;20132;-72
2023/04/05 10:52:57;;;;;;;0.10;0.10;;;;;;;;;;4975659;28;20033;-73
2023/04/05 10:55:23;;;;;;;0.30;0.30;;;;;;;;;;5009307;28;20065;-73
2023/04/05 10:57:49;;;;;;;0.10;0.10;;;;;;;;;;4979895;28;20077;-76
2023/04/05 11:00:15;;;;;;;0.10;0.10;;;;;;;;;;4989806;28;20030;-73
2023/04/05 11:02:41;;;;;;;0.10;0.10;;;;;;;;;;4989830;28;20070;-74
2023/04/05 11:05:26;;;;;;;0.17;0.17;;;;;;;;;;4988063;28;20030;-75
2023/04/05 11:07:55;;;;;;;0.20;0.20;;;;;;;;;;5008572;28;20563;-74
2023/04/05 11:10:21;;;;;;;0.20;0.20;;;;;;;;;;5008816;28;20455;-73
2023/04/05 11:12:47;;;;;;;0.30;0.30;;;;;;;;;;5009397;28;20124;-72
2023/04/05 11:15:24;;;;;;;0.50;0.45;;;;;;;;;;5010397;28;20110;-76
2023/04/05 11:18:09;;;;;;;0.43;0.43;;;;;;;;;;5010193;28;20046;-74
2023/04/05 11:20:42;;;;;;;0.20;0.20;;;;;;;;;;5010198;28;20033;-73
2023/04/05 11:23:08;;;;;;;0.10;0.10;;;;;;;;;;4995231;28;20044;-73
2023/04/05 11:25:37;;;;;;;0.80;0.40;;;;;;;;;;4993298;28;20030;-75
2023/04/05 11:28:04;;;;;;;0.80;0.50;;;;;;;;;;5010203;28;20038;-74
2023/04/05 11:30:52;;;;;;;0.73;0.73;;;;;;;;;;5010536;28;20034;-74
2023/04/05 11:33:37;;;;;;;0.15;0.15;;;;;;;;;;4999908;28;20096;-75
2023/04/05 11:36:03;;;;;;;0.30;0.30;;;;;;;;;;5010892;28;20030;-74
2023/04/05 11:38:28;;;;;;;0.20;0.20;;;;;;;;;;5010713;28;20510;-76
2023/04/05 11:41:06;;;;;;;0.35;0.35;;;;;;;;;;4992998;28;20107;-73
2023/04/05 11:43:34;;;;;;;0.15;0.15;;;;;;;;;;5010379;28;20065;-73
2023/04/05 11:46:01;;;;;;;0.10;0.10;;;;;;;;;;5010513;28;20022;-75
2023/04/05 11:48:27;;;;;;;0.52;0.52;;;;;;;;;;5010421;28;21010;-75
2023/04/05 11:50:53;;;;;;;0.10;0.10;;;;;;;;;;5006695;28;20970;-74
2023/04/05 11:53:20;;;;;;;0.10;0.10;;;;;;;;;;4981171;28;20129;-74
2023/04/05 11:55:46;;;;;;;0.10;0.10;;;;;;;;;;4990538;28;20042;-75
2023/04/05 11:58:12;;;;;;;0.30;0.30;;;;;;;;;;4990980;28;20177;-75
2023/04/05 12:00:37;;;;;;;0.17;0.17;;;;;;;;;;4993454;28;20525;-75
2023/04/05 12:03:04;;;;;;;0.47;0.47;;;;;;;;;;4997763;28;20486;-74
2023/04/05 12:05:50;;;;;;;0.40;0.40;;;;;;;;;;4990872;28;20031;-70
2023/04/05 12:08:19;;;;;;;0.15;0.15;;;;;;;;;;4990264;28;20049;-73
2023/04/05 12:10:53;;;;;;;0.10;0.10;;;;;;;;;;4992014;28;20042;-73
2023/04/05 12:13:25;;;;;;;0.10;0.10;;;;;;;;;;4999898;28;20071;-74
2023/04/05 12:15:51;;;;;;;0.20;0.20;;;;;;;;;;4990710;28;20104;-73
2023/04/05 12:18:16;;;;;;;0.20;0.20;;;;;;;;;;4995358;28;20033;-74
2023/04/05 12:20:42;;;;;;;0.10;0.10;;;;;;;;;;5010129;28;20037;-74
2023/04/05 12:23:07;;;;;;;0.10;0.10;;;;;;;;;;5010149;28;20034;-73
2023/04/05 12:25:35;;;;;;;0.20;0.20;;;;;;;;;;5010075;28;20081;-74
2023/04/05 12:28:05;;;;;;;0.10;0.10;;;;;;;;;;5009909;28;20027;-74
2023/04/05 12:30:35;;;;;;;0.10;0.10;;;;;;;;;;5009839;28;20041;-74
2023/04/05 12:33:06;;;;;;;1.33;0.32;;;;;;;;;;5009820;28;20049;-74
2023/04/05 12:35:33;;;;;;;0.20;0.20;;;;;;;;;;5009503;28;20034;-73
2023/04/05 12:38:06;;;;;;;1.77;1.67;;;;;;;;;;5009866;28;20073;-74
2023/04/05 12:40:35;;;;;;;0.15;0.15;;;;;;;;;;5003459;28;20486;-74
2023/04/05 12:43:06;;;;;;;0.20;0.20;;;;;;;;;;5009617;28;20038;-73
2023/04/05 12:45:38;;;;;;;0.20;0.20;;;;;;;;;;5009665;28;20042;-74
2023/04/05 12:48:14;;;;;;;0.10;0.10;;;;;;;;;;4993606;28;20037;-74
2023/04/05 12:50:43;;;;;;;0.20;0.20;;;;;;;;;;5010003;28;20456;-74
2023/04/05 12:53:16;;;;;;;0.10;0.10;;;;;;;;;;5009394;28;20029;-74
2023/04/05 12:55:44;;;;;;;0.10;0.10;;;;;;;;;;5007842;28;20038;-71
2023/04/05 12:58:10;;;;;;;0.10;0.10;;;;;;;;;;4997774;28;20030;-75
2023/04/05 13:00:35;;;;;;;1.77;0.50;;;;;;;;;;5003962;28;20026;-74
2023/04/05 13:03:01;;;;;;;0.10;0.10;;;;;;;;;;4988431;28;20485;-73
2023/04/05 13:05:27;;;;;;;0.10;0.10;;;;;;;;;;4995196;28;20113;-73
2023/04/05 13:07:52;;;;;;;0.15;0.15;;;;;;;;;;5007976;28;20071;-74
2023/04/05 13:10:19;;;;;;;0.10;0.10;;;;;;;;;;5003447;28;20034;-74
2023/04/05 13:12:44;;;;;;;0.10;0.10;;;;;;;;;;5004287;28;20037;-73
2023/04/05 13:15:10;;;;;;;0.10;0.10;;;;;;;;;;4997350;28;20038;-73
2023/04/05 13:17:35;;;;;;;0.15;0.15;;;;;;;;;;5006916;28;20038;-72
2023/04/05 13:20:01;;;;;;;1.38;1.25;;;;;;;;;;5007581;28;20466;-72
2023/04/05 13:22:26;;;;;;;0.10;0.10;;;;;;;;;;5007242;28;20071;-74
2023/04/05 13:24:52;;;;;;;0.20;0.20;;;;;;;;;;5004943;28;20033;-72
2023/04/05 13:27:18;;;;;;;0.10;0.10;;;;;;;;;;5002847;28;20034;-71
2023/04/05 13:29:44;;;;;;;0.10;0.10;;;;;;;;;;4987714;28;20040;-72
2023/04/05 13:32:09;;;;;;;0.10;0.10;;;;;;;;;;4994235;28;20027;-72
2023/04/05 13:34:35;;;;;;;0.10;0.10;;;;;;;;;;4990162;28;20386;-71
2023/04/05 13:37:00;;;;;;;0.20;0.20;;;;;;;;;;4993546;28;20045;-73
2023/04/05 13:39:26;;;;;;;0.10;0.10;;;;;;;;;;5011115;28;20038;-77
2023/04/05 13:41:51;;;;;;;0.35;0.35;;;;;;;;;;5013160;28;20041;-74
2023/04/05 13:44:16;;;;;;;0.20;0.20;;;;;;;;;;5012564;28;20112;-73
2023/04/05 13:46:42;;;;;;;0.10;0.10;;;;;;;;;;5006127;28;20120;-75
2023/04/05 13:49:07;;;;;;;0.13;0.13;;;;;;;;;;5005993;28;20090;-73
2023/04/05 13:51:34;;;;;;;0.10;0.10;;;;;;;;;;5005985;28;20061;-73
2023/04/05 13:53:59;;;;;;;0.40;0.40;;;;;;;;;;5005138;28;20040;-75
2023/04/05 13:56:25;;;;;;;0.95;0.73;;;;;;;;;;5002088;28;20109;-76
2023/04/05 13:58:50;;;;;;;0.20;0.20;;;;;;;;;;5001289;28;20042;-72
2023/04/05 14:01:16;;;;;;;0.17;0.17;;;;;;;;;;5006540;28;20030;-71
2023/04/05 14:03:41;;;;;;;0.30;0.30;;;;;;;;;;5005043;28;20086;-76
2023/04/05 14:06:07;;;;;;;0.52;0.52;;;;;;;;;;4992271;28;20046;-74
2023/04/05 14:08:32;;;;;;;0.52;0.40;;;;;;;;;;4990634;28;20476;-74
2023/04/05 14:10:57;;;;;;;1.27;0.28;;;;;;;;;;4990745;28;20390;-74
2023/04/05 14:13:23;;;;;;;0.30;0.30;;;;;;;;;;4990724;28;20037;-72
2023/04/05 14:15:49;;;;;;;0.45;0.40;;;;;;;;;;4990543;28;20097;-73
2023/04/05 14:18:14;;;;;;;0.63;0.38;;;;;;;;;;4982202;28;20041;-75
2023/04/05 14:20:40;;;;;;;0.63;0.55;;;;;;;;;;5010329;28;20029;-74
2023/04/05 14:23:05;;;;;;;0.55;0.38;;;;;;;;;;4992143;28;20445;-74
2023/04/05 14:25:31;;;;;;;0.15;0.15;;;;;;;;;;5011978;28;20033;-75
2023/04/05 14:27:56;;;;;;;0.20;0.20;;;;;;;;;;5006017;28;20069;-73
2023/04/05 14:30:22;;;;;;;1.20;0.75;;;;;;;;;;5003206;28;20042;-75
2023/04/05 14:32:47;;;;;;;0.25;0.20;;;;;;;;;;4999995;28;20582;-74
2023/04/05 14:35:13;;;;;;;1.08;0.30;;;;;;;;;;5000065;28;20528;-74
2023/04/05 14:37:38;;;;;;;0.47;0.30;;;;;;;;;;5007212;28;20038;-75
2023/04/05 14:40:04;;;;;;;0.10;0.10;;;;;;;;;;5011536;28;20042;-74
2023/04/05 14:42:29;;;;;;;0.10;0.10;;;;;;;;;;5011936;28;20385;-74
2023/04/05 14:44:55;;;;;;;0.10;0.10;;;;;;;;;;5011318;28;20041;-74
2023/04/05 14:47:20;;;;;;;0.10;0.10;;;;;;;;;;5010185;28;20034;-74
2023/04/05 14:49:46;;;;;;;0.20;0.20;;;;;;;;;;5010224;28;20040;-74
2023/04/05 14:52:12;;;;;;;0.10;0.10;;;;;;;;;;5010013;28;20029;-74
2023/04/05 14:54:37;;;;;;;0.43;0.43;;;;;;;;;;4992621;28;20037;-75